Time;durP1;ratioP1;P1;durP2;ratioP2;P2;SDS_P1;SDS_P2;PMS_P1;PMS_P2;Temp;Humidity;BMP_temperature;BMP_pressure;BME280_temperature;BME280_humidity;BME280_pressure;Samples;Min_cycle;Max_cycle;Signal;HPM_P1;HPM_P2
2024/02/23 00:02:18;;;;;;;1.75;0.30;;;18.90;43.30;;;;;;8358693;28;20040;-55
2024/02/23 00:06:19;;;;;;;0.30;0.30;;;18.90;43.30;;;;;;8358887;28;20040;-55
2024/02/23 00:10:20;;;;;;;0.30;0.20;;;18.90;43.30;;;;;;8362915;28;20041;-55
2024/02/23 00:14:20;;;;;;;0.30;0.30;;;18.90;43.30;;;;;;8364784;28;20132;-55
2024/02/23 00:18:21;;;;;;;0.20;0.20;;;18.90;43.30;;;;;;8364874;28;20033;-55
2024/02/23 00:22:25;;;;;;;0.40;0.40;;;18.90;43.30;;;;;;8365111;28;20021;-55
2024/02/23 00:26:27;;;;;;;0.30;0.30;;;18.90;43.30;;;;;;8364689;28;20073;-55
2024/02/23 00:30:28;;;;;;;0.30;0.30;;;18.90;43.30;;;;;;8364644;28;20033;-55
2024/02/23 00:34:31;;;;;;;0.20;0.20;;;18.90;43.30;;;;;;8364529;28;20040;-54
2024/02/23 00:38:32;;;;;;;0.30;0.30;;;18.80;43.30;;;;;;8364163;28;20791;-55
2024/02/23 00:42:32;;;;;;;0.20;0.20;;;18.90;43.40;;;;;;8364287;28;20423;-55
2024/02/23 00:46:34;;;;;;;0.22;0.20;;;18.90;43.30;;;;;;8362651;28;20041;-55
2024/02/23 00:50:34;;;;;;;0.20;0.20;;;18.90;43.30;;;;;;8362251;28;20037;-55
2024/02/23 00:54:35;;;;;;;0.20;0.20;;;18.80;43.30;;;;;;8362503;28;20082;-54
2024/02/23 00:58:36;;;;;;;0.20;0.20;;;18.80;43.40;;;;;;8363243;28;20383;-55
2024/02/23 01:02:38;;;;;;;0.35;0.35;;;18.80;43.90;;;;;;8363507;28;20037;-55
2024/02/23 01:06:38;;;;;;;0.30;0.30;;;18.90;43.40;;;;;;8363276;28;20086;-55
2024/02/23 01:10:39;;;;;;;0.20;0.20;;;18.90;43.40;;;;;;8363092;28;20041;-55
2024/02/23 01:14:40;;;;;;;0.20;0.20;;;18.80;43.40;;;;;;8362715;28;20323;-56
2024/02/23 01:18:40;;;;;;;0.20;0.20;;;18.80;43.40;;;;;;8363048;28;20033;-56
2024/02/23 01:22:41;;;;;;;0.30;0.20;;;18.80;43.40;;;;;;8362616;28;20029;-56
2024/02/23 01:26:42;;;;;;;0.35;0.30;;;18.80;43.40;;;;;;8362477;28;20037;-56
2024/02/23 01:30:43;;;;;;;0.20;0.20;;;18.80;43.40;;;;;;8362605;28;20075;-56
2024/02/23 01:34:43;;;;;;;0.20;0.20;;;18.80;43.90;;;;;;8362292;28;20509;-56
2024/02/23 01:38:44;;;;;;;0.20;0.20;;;18.80;43.40;;;;;;8362186;28;20057;-55
2024/02/23 01:42:45;;;;;;;0.30;0.30;;;18.80;43.40;;;;;;8362175;28;20284;-55
2024/02/23 01:46:46;;;;;;;0.30;0.30;;;18.80;43.40;;;;;;8362160;28;20056;-55
2024/02/23 01:50:46;;;;;;;0.25;0.25;;;18.80;43.40;;;;;;8361655;28;20041;-54
2024/02/23 01:54:47;;;;;;;0.10;0.10;;;18.80;43.50;;;;;;8361730;28;20033;-54
2024/02/23 01:58:49;;;;;;;0.20;0.20;;;18.80;43.50;;;;;;8361465;28;20039;-56
2024/02/23 02:02:50;;;;;;;0.20;0.20;;;18.80;43.50;;;;;;8361603;28;20504;-55
2024/02/23 02:06:51;;;;;;;0.25;0.25;;;18.80;43.50;;;;;;8361152;28;20682;-56
2024/02/23 02:10:51;;;;;;;;;;;18.80;43.50;;;;;;8361789;28;20422;-55
2024/02/23 02:14:54;;;;;;;0.20;0.20;;;18.80;43.50;;;;;;8361269;28;19935;-56
2024/02/23 02:18:54;;;;;;;0.30;0.30;;;18.80;43.60;;;;;;8360942;28;20029;-53
2024/02/23 02:22:57;;;;;;;0.20;0.20;;;18.80;43.50;;;;;;8361165;28;20084;-54
2024/02/23 02:26:58;;;;;;;0.20;0.20;;;18.80;43.60;;;;;;8359651;28;20033;-54
2024/02/23 02:30:58;;;;;;;0.20;0.20;;;18.80;43.50;;;;;;8360823;28;20224;-53
2024/02/23 02:34:59;;;;;;;0.20;0.20;;;18.70;43.50;;;;;;8360374;28;20037;-53
2024/02/23 02:39:00;;;;;;;0.20;0.20;;;18.80;43.60;;;;;;8360359;28;20040;-51
2024/02/23 02:43:00;;;;;;;0.30;0.30;;;18.80;43.50;;;;;;8360246;28;20032;-51
2024/02/23 02:47:01;;;;;;;0.20;0.20;;;18.80;43.50;;;;;;8360352;28;20037;-52
2024/02/23 02:51:02;;;;;;;0.20;0.20;;;18.80;43.50;;;;;;8360161;28;20097;-53
2024/02/23 02:55:03;;;;;;;0.20;0.20;;;18.80;43.60;;;;;;8360351;28;20040;-53
2024/02/23 02:59:04;;;;;;;;;;;18.80;43.60;;;;;;8360125;28;20111;-54
2024/02/23 03:03:05;;;;;;;0.27;0.27;;;18.80;43.50;;;;;;8360000;28;19909;-54
2024/02/23 03:07:05;;;;;;;0.20;0.20;;;18.80;43.50;;;;;;8358797;28;20037;-54
2024/02/23 03:11:07;;;;;;;0.20;0.20;;;18.80;43.50;;;;;;8359240;28;20053;-53
2024/02/23 03:15:12;;;;;;;0.20;0.20;;;18.80;43.50;;;;;;8359677;28;20032;-54
2024/02/23 03:19:13;;;;;;;0.20;0.20;;;18.70;43.50;;;;;;8359292;28;20047;-53
2024/02/23 03:23:14;;;;;;;0.43;0.30;;;18.80;43.60;;;;;;8359428;28;20033;-53
2024/02/23 03:27:14;;;;;;;0.30;0.30;;;18.80;43.60;;;;;;8359519;28;20368;-53
2024/02/23 03:31:15;;;;;;;0.20;0.20;;;18.70;44.00;;;;;;8359250;28;20040;-52
2024/02/23 03:35:16;;;;;;;0.30;0.30;;;18.80;43.60;;;;;;8359472;28;20041;-54
2024/02/23 03:39:17;;;;;;;0.20;0.20;;;18.80;43.60;;;;;;8359217;28;20052;-52
2024/02/23 03:43:17;;;;;;;0.20;0.20;;;18.80;43.60;;;;;;8360430;28;20029;-54
2024/02/23 03:47:18;;;;;;;0.30;0.28;;;18.70;43.50;;;;;;8365811;28;20048;-53
2024/02/23 03:51:18;;;;;;;0.20;0.20;;;18.70;43.50;;;;;;8365899;28;20040;-53
2024/02/23 03:55:19;;;;;;;0.30;0.30;;;18.70;43.50;;;;;;8365589;28;20100;-53
2024/02/23 03:59:20;;;;;;;0.20;0.20;;;18.70;43.50;;;;;;8365194;28;20037;-52
2024/02/23 04:03:21;;;;;;;0.28;0.28;;;18.70;43.60;;;;;;8365241;28;20517;-52
2024/02/23 04:07:21;;;;;;;0.20;0.20;;;18.70;43.50;;;;;;8364976;28;20103;-52
2024/02/23 04:11:22;;;;;;;0.20;0.20;;;18.70;43.60;;;;;;8364831;28;20513;-53
2024/02/23 04:15:23;;;;;;;0.17;0.17;;;18.80;43.60;;;;;;8364841;28;20091;-53
2024/02/23 04:19:23;;;;;;;0.20;0.20;;;18.70;43.50;;;;;;8364729;28;20036;-53
2024/02/23 04:23:24;;;;;;;0.10;0.10;;;18.70;43.60;;;;;;8364889;28;20727;-53
2024/02/23 04:27:25;;;;;;;0.20;0.20;;;18.70;43.50;;;;;;8364276;28;20315;-54
2024/02/23 04:31:25;;;;;;;0.20;0.20;;;18.70;43.60;;;;;;8364549;28;20033;-53
2024/02/23 04:35:26;;;;;;;0.43;0.43;;;18.70;43.60;;;;;;8364243;28;20033;-55
2024/02/23 04:39:27;;;;;;;0.20;0.20;;;18.70;43.60;;;;;;8364169;28;20475;-55
2024/02/23 04:43:28;;;;;;;0.20;0.20;;;18.70;43.50;;;;;;8363840;28;20041;-54
2024/02/23 04:47:28;;;;;;;0.37;0.20;;;18.70;44.10;;;;;;8364108;28;20048;-55
2024/02/23 04:51:29;;;;;;;0.30;0.30;;;18.70;43.60;;;;;;8363782;28;20287;-55
2024/02/23 04:55:29;;;;;;;0.20;0.20;;;18.70;43.60;;;;;;8363459;28;20501;-55
2024/02/23 04:59:32;;;;;;;0.30;0.30;;;18.70;43.60;;;;;;8363424;28;20079;-56
2024/02/23 05:03:32;;;;;;;0.10;0.10;;;18.70;43.60;;;;;;8363439;28;20025;-56
2024/02/23 05:07:34;;;;;;;0.20;0.20;;;18.70;43.60;;;;;;8363346;28;20506;-55
2024/02/23 05:11:34;;;;;;;;;;;18.70;43.60;;;;;;8363328;28;20310;-55
2024/02/23 05:15:35;;;;;;;0.20;0.20;;;18.70;43.60;;;;;;8363205;28;19917;-55
2024/02/23 05:19:36;;;;;;;0.20;0.15;;;18.70;43.60;;;;;;8362900;28;20037;-55
2024/02/23 05:23:36;;;;;;;0.30;0.30;;;18.70;43.60;;;;;;8362821;28;20157;-54
2024/02/23 05:27:37;;;;;;;0.30;0.30;;;18.80;43.60;;;;;;8361202;28;20117;-55
2024/02/23 05:31:47;;;;;;;0.20;0.20;;;18.80;43.50;;;;;;8362641;28;20805;-55
2024/02/23 05:35:48;;;;;;;0.20;0.20;;;18.80;43.20;;;;;;8362391;28;20056;-55
2024/02/23 05:39:49;;;;;;;0.25;0.25;;;18.90;43.20;;;;;;8362441;28;20110;-55
2024/02/23 05:43:50;;;;;;;0.25;0.20;;;19.00;43.30;;;;;;8362142;28;20037;-55
2024/02/23 05:47:51;;;;;;;0.43;0.17;;;19.00;43.30;;;;;;8362073;28;20040;-56
2024/02/23 05:51:51;;;;;;;0.30;0.30;;;19.00;43.20;;;;;;8362037;28;20033;-56
2024/02/23 05:55:52;;;;;;;0.20;0.20;;;19.00;43.10;;;;;;8361655;28;20051;-55
2024/02/23 05:59:55;;;;;;;0.15;0.15;;;19.00;43.10;;;;;;8361613;28;20029;-56
2024/02/23 06:03:55;;;;;;;0.38;0.30;;;19.00;43.10;;;;;;8361307;28;20025;-54
2024/02/23 06:07:56;;;;;;;0.25;0.25;;;19.00;43.00;;;;;;8360679;28;20040;-56
2024/02/23 06:11:57;;;;;;;0.30;0.30;;;19.00;43.00;;;;;;8361132;28;20128;-55
2024/02/23 06:15:57;;;;;;;0.30;0.30;;;19.00;43.10;;;;;;8360851;28;20044;-55
2024/02/23 06:19:58;;;;;;;0.25;0.25;;;19.00;43.00;;;;;;8361136;28;20021;-56
2024/02/23 06:23:59;;;;;;;0.20;0.20;;;19.00;43.10;;;;;;8360767;28;20490;-55
2024/02/23 06:28:00;;;;;;;0.20;0.20;;;19.00;43.00;;;;;;8360734;28;20091;-56
2024/02/23 06:32:02;;;;;;;0.35;0.25;;;19.00;43.00;;;;;;8360697;28;20047;-56
2024/02/23 06:36:04;;;;;;;0.20;0.20;;;19.00;43.00;;;;;;8360517;28;20044;-55
2024/02/23 06:40:07;;;;;;;0.20;0.20;;;19.10;43.00;;;;;;8360447;28;20035;-53
2024/02/23 06:44:07;;;;;;;0.17;0.17;;;19.00;43.00;;;;;;8360472;28;20487;-56
2024/02/23 06:48:08;;;;;;;0.20;0.20;;;19.10;43.00;;;;;;8360203;28;20428;-54
2024/02/23 06:52:10;;;;;;;0.52;0.30;;;19.10;43.00;;;;;;8359969;28;20102;-55
2024/02/23 06:56:10;;;;;;;;;;;19.10;42.90;;;;;;8360584;28;20037;-56
2024/02/23 07:00:11;;;;;;;0.27;0.27;;;19.10;42.90;;;;;;8359847;28;20066;-56
2024/02/23 07:04:12;;;;;;;0.30;0.30;;;19.10;42.90;;;;;;8359723;28;20036;-55
2024/02/23 07:08:13;;;;;;;0.20;0.20;;;19.10;43.00;;;;;;8359973;28;20033;-55
2024/02/23 07:12:14;;;;;;;0.20;0.20;;;19.10;43.00;;;;;;8359660;28;20179;-55
2024/02/23 07:16:14;;;;;;;0.25;0.25;;;19.10;43.00;;;;;;8359713;28;20041;-55
2024/02/23 07:20:15;;;;;;;0.13;0.13;;;19.10;42.90;;;;;;8369429;28;20025;-55
2024/02/23 07:24:17;;;;;;;0.30;0.30;;;19.10;42.90;;;;;;8370098;28;20029;-54
2024/02/23 07:28:22;;;;;;;0.20;0.20;;;19.10;42.90;;;;;;8370977;28;20382;-54
2024/02/23 07:32:24;;;;;;;0.20;0.20;;;19.10;43.00;;;;;;8370491;28;20040;-55
2024/02/23 07:36:24;;;;;;;0.73;0.20;;;19.10;42.90;;;;;;8370480;28;20037;-55
2024/02/23 07:40:25;;;;;;;0.20;0.20;;;19.10;42.90;;;;;;8370382;28;20155;-55
2024/02/23 07:44:26;;;;;;;0.10;0.10;;;19.10;43.00;;;;;;8369271;28;20390;-56
2024/02/23 07:48:26;;;;;;;0.22;0.22;;;19.10;42.90;;;;;;8370158;28;20091;-55
2024/02/23 07:52:27;;;;;;;0.30;0.20;;;19.10;43.00;;;;;;8370149;28;20435;-54
2024/02/23 07:56:29;;;;;;;0.20;0.20;;;19.10;42.90;;;;;;8369800;28;20040;-55
2024/02/23 08:00:30;;;;;;;0.20;0.20;;;19.10;42.90;;;;;;8370209;28;20029;-55
2024/02/23 08:04:30;;;;;;;0.30;0.30;;;19.10;43.00;;;;;;8370583;28;20083;-56
2024/02/23 08:08:34;;;;;;;0.30;0.30;;;19.00;43.00;;;;;;8370208;28;20041;-55
2024/02/23 08:12:35;;;;;;;0.20;0.20;;;19.00;43.10;;;;;;8369719;28;20056;-55
2024/02/23 08:16:36;;;;;;;0.38;0.22;;;18.90;43.10;;;;;;8369920;28;20073;-56
2024/02/23 08:20:36;;;;;;;1.08;0.20;;;18.90;43.30;;;;;;8369887;28;20459;-54
2024/02/23 08:24:37;;;;;;;0.22;0.20;;;18.90;43.20;;;;;;8368698;28;20029;-55
2024/02/23 08:28:38;;;;;;;0.20;0.20;;;18.90;43.20;;;;;;8368693;28;20100;-55
2024/02/23 08:32:39;;;;;;;0.20;0.20;;;19.00;43.30;;;;;;8364214;28;20112;-55
2024/02/23 08:36:40;;;;;;;0.20;0.20;;;19.00;43.20;;;;;;8364354;28;20513;-55
2024/02/23 08:40:42;;;;;;;0.20;0.20;;;19.00;43.10;;;;;;8364131;28;20376;-55
2024/02/23 08:44:42;;;;;;;0.17;0.17;;;19.00;43.00;;;;;;8364167;28;20037;-54
2024/02/23 08:48:43;;;;;;;0.22;0.20;;;19.10;43.00;;;;;;8364146;28;20390;-56
2024/02/23 08:52:44;;;;;;;0.20;0.20;;;19.00;42.90;;;;;;8363676;28;20087;-55
2024/02/23 08:56:44;;;;;;;0.10;0.10;;;19.10;43.00;;;;;;8363652;28;20047;-55
2024/02/23 09:00:45;;;;;;;0.20;0.20;;;19.10;42.90;;;;;;8364612;28;20777;-56
2024/02/23 09:04:46;;;;;;;0.20;0.20;;;19.10;42.90;;;;;;8363401;28;20044;-55
2024/02/23 09:08:47;;;;;;;0.17;0.17;;;19.10;42.90;;;;;;8363343;28;20542;-54
2024/02/23 09:12:47;;;;;;;0.17;0.17;;;19.10;42.90;;;;;;8361794;28;20081;-56
2024/02/23 09:16:50;;;;;;;0.50;0.20;;;19.10;42.90;;;;;;8362857;28;20041;-57
2024/02/23 09:20:51;;;;;;;0.20;0.20;;;19.10;42.90;;;;;;8362693;28;20103;-57
2024/02/23 09:24:52;;;;;;;0.30;0.30;;;19.10;42.90;;;;;;8363082;28;20044;-56
2024/02/23 09:28:53;;;;;;;0.20;0.20;;;19.10;42.90;;;;;;8362647;28;20033;-57
2024/02/23 09:32:54;;;;;;;0.10;0.10;;;19.10;42.90;;;;;;8361246;28;20052;-57
2024/02/23 09:36:55;;;;;;;0.20;0.20;;;19.10;42.90;;;;;;8362220;28;20116;-55
2024/02/23 09:40:56;;;;;;;0.20;0.20;;;19.10;42.90;;;;;;8361201;28;20033;-57
2024/02/23 09:45:00;;;;;;;0.20;0.20;;;19.10;42.90;;;;;;8362118;28;20119;-55
2024/02/23 09:49:03;;;;;;;0.20;0.20;;;19.10;42.90;;;;;;8361924;28;20104;-57
2024/02/23 09:53:08;;;;;;;0.50;0.10;;;19.10;42.90;;;;;;8362037;28;20138;-56
2024/02/23 09:57:10;;;;;;;0.20;0.20;;;19.10;42.90;;;;;;8361652;28;20036;-55
2024/02/23 10:01:11;;;;;;;0.30;0.30;;;19.10;42.90;;;;;;8361583;28;20545;-57
2024/02/23 10:05:13;;;;;;;;;;;19.10;42.90;;;;;;8361909;28;20029;-55
2024/02/23 10:09:14;;;;;;;0.40;0.20;;;19.10;42.80;;;;;;8361387;28;19911;-56
2024/02/23 10:13:20;;;;;;;1.20;0.40;;;19.10;42.90;;;;;;8361445;28;20542;-55
2024/02/23 10:17:21;;;;;;;0.25;0.25;;;19.10;42.90;;;;;;8361048;28;20720;-56
2024/02/23 10:21:21;;;;;;;0.28;0.28;;;19.10;42.90;;;;;;8361031;28;20395;-57
2024/02/23 10:25:22;;;;;;;0.30;0.30;;;19.10;42.90;;;;;;8361034;28;20082;-55
2024/02/23 10:29:23;;;;;;;0.20;0.20;;;19.10;42.90;;;;;;8360983;28;20033;-56
2024/02/23 10:33:24;;;;;;;0.30;0.30;;;19.10;42.90;;;;;;8359436;28;20029;-56
2024/02/23 10:37:26;;;;;;;0.20;0.17;;;19.10;43.00;;;;;;8360438;28;20044;-56
2024/02/23 10:41:28;;;;;;;0.20;0.10;;;19.10;43.00;;;;;;8360440;28;20506;-56
2024/02/23 10:45:29;;;;;;;0.20;0.10;;;19.10;43.00;;;;;;8360349;28;20071;-56
2024/02/23 10:49:31;;;;;;;0.20;0.20;;;19.00;43.00;;;;;;8360419;28;20029;-56
2024/02/23 10:53:32;;;;;;;0.10;0.10;;;19.00;43.00;;;;;;8359716;28;20037;-57
2024/02/23 10:57:35;;;;;;;0.30;0.30;;;19.00;43.00;;;;;;8359962;28;20507;-56
2024/02/23 11:01:39;;;;;;;0.17;0.17;;;19.00;43.10;;;;;;8360076;28;20086;-57
2024/02/23 11:05:40;;;;;;;0.10;0.10;;;19.00;43.10;;;;;;8358824;28;20566;-56
2024/02/23 11:09:41;;;;;;;;;;;19.00;43.20;;;;;;8360736;28;20491;-56
2024/02/23 11:13:46;;;;;;;0.23;0.23;;;19.00;43.20;;;;;;8359879;28;20321;-57
2024/02/23 11:17:50;;;;;;;0.20;0.20;;;19.00;43.20;;;;;;8360216;28;20501;-57
2024/02/23 11:21:53;;;;;;;0.45;0.22;;;19.00;43.20;;;;;;8359930;28;20060;-56
2024/02/23 11:26:23;;;;;;;0.25;0.25;;;19.00;43.20;;;;;;8359788;28;20452;-57
2024/02/23 11:30:26;;;;;;;0.20;0.20;;;19.00;43.10;;;;;;8359731;28;20073;-57
2024/02/23 11:34:28;;;;;;;0.30;0.22;;;19.00;43.10;;;;;;8359948;28;20075;-56
2024/02/23 11:38:30;;;;;;;0.20;0.20;;;19.10;43.00;;;;;;8359573;28;20036;-55
2024/02/23 11:42:32;;;;;;;0.52;0.20;;;19.00;43.00;;;;;;8358326;28;20517;-56
2024/02/23 11:46:33;;;;;;;0.20;0.20;;;19.00;43.10;;;;;;8359487;28;20446;-56
2024/02/23 11:50:35;;;;;;;0.20;0.20;;;19.00;43.10;;;;;;8359489;28;20047;-56
2024/02/23 11:54:36;;;;;;;0.13;0.13;;;19.00;43.10;;;;;;8359462;28;20467;-56
2024/02/23 11:58:36;;;;;;;0.13;0.13;;;19.00;43.10;;;;;;8359147;28;20449;-55
2024/02/23 12:02:37;;;;;;;0.20;0.20;;;19.00;43.10;;;;;;8359370;28;20087;-55
2024/02/23 12:06:38;;;;;;;0.10;0.10;;;19.00;43.20;;;;;;8363648;28;20463;-56
2024/02/23 12:10:39;;;;;;;0.20;0.20;;;19.00;43.20;;;;;;8365369;28;20025;-54
2024/02/23 12:14:40;;;;;;;0.30;0.30;;;19.00;43.20;;;;;;8365358;28;20413;-55
2024/02/23 12:18:41;;;;;;;;;;;19.00;43.20;;;;;;8366014;28;20041;-55
2024/02/23 12:22:42;;;;;;;1.40;0.27;;;19.00;43.20;;;;;;8365013;28;19915;-56
2024/02/23 12:26:42;;;;;;;0.35;0.35;;;19.00;43.20;;;;;;8364730;28;20044;-56
2024/02/23 12:30:43;;;;;;;0.20;0.20;;;19.00;43.20;;;;;;8364942;28;20037;-56
2024/02/23 12:34:44;;;;;;;0.17;0.17;;;19.00;43.10;;;;;;8364685;28;20041;-56
2024/02/23 12:38:45;;;;;;;0.20;0.20;;;19.00;43.10;;;;;;8364458;28;20040;-55
2024/02/23 12:42:48;;;;;;;0.20;0.20;;;19.00;43.10;;;;;;8364359;28;20033;-56
2024/02/23 12:46:49;;;;;;;0.20;0.20;;;19.00;43.20;;;;;;8364197;28;20829;-57
2024/02/23 12:50:50;;;;;;;0.13;0.13;;;19.00;43.20;;;;;;8364337;28;20426;-57
2024/02/23 12:54:51;;;;;;;0.20;0.20;;;19.00;43.20;;;;;;8364019;28;20044;-58
2024/02/23 12:58:53;;;;;;;0.20;0.20;;;19.00;43.10;;;;;;8363864;28;20033;-57
2024/02/23 13:02:54;;;;;;;0.10;0.10;;;19.00;43.20;;;;;;8363536;28;20057;-57
2024/02/23 13:06:56;;;;;;;0.20;0.20;;;19.00;43.20;;;;;;8362647;28;20042;-55
2024/02/23 13:10:57;;;;;;;0.20;0.20;;;19.00;43.20;;;;;;8363324;28;20486;-57
2024/02/23 13:14:58;;;;;;;0.38;0.20;;;19.00;43.20;;;;;;8363269;28;20811;-57
2024/02/23 13:18:58;;;;;;;0.20;0.20;;;19.00;43.20;;;;;;8363298;28;20334;-57
2024/02/23 13:22:59;;;;;;;0.10;0.10;;;19.00;43.20;;;;;;8363207;28;20033;-54
2024/02/23 13:27:00;;;;;;;0.20;0.20;;;19.00;43.10;;;;;;8363002;28;20037;-55
2024/02/23 13:31:01;;;;;;;0.35;0.35;;;19.00;43.10;;;;;;8363058;28;20036;-56
2024/02/23 13:35:04;;;;;;;0.20;0.20;;;19.00;43.10;;;;;;8362811;28;20385;-56
2024/02/23 13:39:04;;;;;;;0.10;0.10;;;19.00;43.20;;;;;;8363192;28;20051;-57
2024/02/23 13:43:05;;;;;;;0.30;0.30;;;19.00;43.20;;;;;;8362583;28;20108;-54
2024/02/23 13:47:06;;;;;;;0.17;0.17;;;19.00;43.20;;;;;;8362590;28;20040;-56
2024/02/23 13:51:06;;;;;;;0.10;0.10;;;19.00;43.10;;;;;;8362335;28;20031;-56
2024/02/23 13:55:09;;;;;;;0.30;0.30;;;19.00;43.20;;;;;;8362286;28;20040;-54
2024/02/23 13:59:09;;;;;;;0.10;0.10;;;19.00;43.20;;;;;;8362050;28;20414;-55
2024/02/23 14:03:17;;;;;;;0.45;0.40;;;19.00;43.20;;;;;;8361903;28;20037;-55
2024/02/23 14:07:17;;;;;;;0.75;0.20;;;19.00;43.20;;;;;;8361946;28;20063;-56
2024/02/23 14:11:18;;;;;;;0.20;0.20;;;19.00;43.20;;;;;;8361889;28;20057;-56
2024/02/23 14:15:19;;;;;;;0.40;0.20;;;19.00;43.20;;;;;;8361739;28;20041;-55
2024/02/23 14:19:20;;;;;;;0.13;0.13;;;19.00;43.20;;;;;;8362480;28;20463;-54
2024/02/23 14:23:21;;;;;;;;;;;19.00;43.30;;;;;;8361834;28;20041;-54
2024/02/23 14:27:21;;;;;;;0.10;0.10;;;19.00;43.30;;;;;;8360700;28;19915;-55
2024/02/23 14:31:22;;;;;;;0.20;0.20;;;18.90;43.20;;;;;;8361106;28;20029;-55
2024/02/23 14:35:23;;;;;;;0.20;0.20;;;18.90;43.20;;;;;;8360968;28;20032;-55
2024/02/23 14:39:26;;;;;;;0.30;0.30;;;18.90;43.30;;;;;;8360941;28;20057;-55
2024/02/23 14:43:27;;;;;;;0.20;0.20;;;18.90;43.20;;;;;;8360832;28;20063;-55
2024/02/23 14:47:27;;;;;;;1.27;0.30;;;19.00;43.30;;;;;;8360676;28;20037;-56
2024/02/23 14:51:29;;;;;;;0.20;0.20;;;18.90;43.20;;;;;;8360639;28;20232;-55
2024/02/23 14:55:29;;;;;;;0.25;0.25;;;19.00;43.30;;;;;;8360665;28;20494;-55
2024/02/23 14:59:30;;;;;;;0.10;0.10;;;18.90;43.20;;;;;;8360259;28;20474;-55
2024/02/23 15:03:32;;;;;;;0.30;0.25;;;18.90;43.20;;;;;;8360403;28;20041;-55
2024/02/23 15:07:33;;;;;;;0.30;0.30;;;18.90;43.20;;;;;;8360386;28;20108;-57
2024/02/23 15:11:34;;;;;;;0.20;0.20;;;18.90;43.20;;;;;;8360267;28;20098;-56
2024/02/23 15:15:35;;;;;;;0.38;0.30;;;18.90;43.20;;;;;;8359995;28;20045;-57
2024/02/23 15:19:36;;;;;;;0.20;0.20;;;18.90;43.20;;;;;;8360006;28;20033;-56
2024/02/23 15:23:37;;;;;;;0.40;0.20;;;19.00;43.30;;;;;;8360171;28;20033;-55
2024/02/23 15:27:38;;;;;;;0.17;0.17;;;18.90;43.20;;;;;;8359717;28;20040;-54
2024/02/23 15:31:39;;;;;;;0.28;0.28;;;18.90;43.20;;;;;;8360405;28;20706;-57
2024/02/23 15:35:40;;;;;;;0.20;0.20;;;18.90;43.20;;;;;;8359845;28;20041;-55
2024/02/23 15:39:40;;;;;;;0.30;0.17;;;18.90;43.20;;;;;;8362982;28;20089;-56
2024/02/23 15:43:41;;;;;;;0.90;0.13;;;18.90;43.20;;;;;;8366812;28;20283;-55
2024/02/23 15:47:42;;;;;;;0.20;0.20;;;19.00;43.30;;;;;;8366241;28;20033;-57
2024/02/23 15:51:42;;;;;;;0.20;0.20;;;19.00;43.30;;;;;;8366168;28;20295;-56
2024/02/23 15:55:43;;;;;;;0.20;0.20;;;19.00;43.30;;;;;;8365887;28;20025;-56
2024/02/23 15:59:44;;;;;;;1.63;0.20;;;18.90;43.20;;;;;;8366130;28;20025;-56
2024/02/23 16:03:44;;;;;;;0.10;0.10;;;19.00;43.30;;;;;;8365723;28;20657;-57
2024/02/23 16:07:48;;;;;;;0.20;0.20;;;18.90;43.20;;;;;;8365663;28;20032;-57
2024/02/23 16:11:49;;;;;;;0.32;0.20;;;19.00;43.30;;;;;;8365328;28;20052;-56
2024/02/23 16:15:49;;;;;;;0.20;0.20;;;18.90;43.20;;;;;;8365536;28;20539;-56
2024/02/23 16:19:50;;;;;;;0.20;0.20;;;18.90;43.20;;;;;;8365249;28;20029;-54
2024/02/23 16:23:51;;;;;;;0.30;0.30;;;18.90;43.20;;;;;;8365092;28;20037;-55
2024/02/23 16:27:52;;;;;;;0.20;0.20;;;19.00;43.30;;;;;;8364883;28;20670;-55
2024/02/23 16:31:52;;;;;;;0.47;0.20;;;19.00;43.30;;;;;;8365127;28;20029;-56
2024/02/23 16:35:57;;;;;;;0.30;0.30;;;19.00;43.20;;;;;;8364617;28;20040;-55
2024/02/23 16:39:59;;;;;;;0.10;0.10;;;19.00;43.20;;;;;;8364808;28;20060;-55
2024/02/23 16:44:00;;;;;;;0.30;0.30;;;19.00;43.30;;;;;;8364507;28;20717;-56
2024/02/23 16:48:06;;;;;;;0.20;0.20;;;19.00;43.30;;;;;;8364418;28;20033;-55
2024/02/23 16:52:07;;;;;;;0.10;0.10;;;19.00;43.30;;;;;;8363780;28;20108;-55
2024/02/23 16:56:07;;;;;;;0.17;0.17;;;19.00;43.30;;;;;;8364025;28;20033;-55
2024/02/23 17:00:08;;;;;;;0.20;0.20;;;19.00;43.30;;;;;;8364190;28;20026;-55
2024/02/23 17:04:09;;;;;;;;;;;19.00;43.20;;;;;;8364309;28;20040;-54
2024/02/23 17:08:10;;;;;;;0.10;0.10;;;19.00;43.30;;;;;;8364089;28;19908;-56
2024/02/23 17:12:10;;;;;;;0.30;0.30;;;19.00;43.30;;;;;;8363255;28;20110;-55
2024/02/23 17:16:12;;;;;;;0.20;0.20;;;19.00;43.30;;;;;;8363605;28;20036;-55
2024/02/23 17:20:13;;;;;;;0.20;0.20;;;19.00;43.30;;;;;;8363574;28;20057;-55
2024/02/23 17:24:14;;;;;;;0.65;0.20;;;19.00;43.30;;;;;;8363440;28;20025;-55
2024/02/23 17:28:15;;;;;;;0.10;0.10;;;19.00;43.30;;;;;;8363036;28;20478;-55
2024/02/23 17:32:16;;;;;;;0.28;0.20;;;19.00;43.30;;;;;;8363124;28;20034;-53
2024/02/23 17:36:16;;;;;;;0.15;0.15;;;18.90;43.20;;;;;;8363286;28;20029;-56
2024/02/23 17:40:17;;;;;;;0.20;0.20;;;18.90;43.20;;;;;;8362715;28;20391;-55
2024/02/23 17:44:18;;;;;;;0.45;0.10;;;18.90;43.30;;;;;;8363577;28;20362;-55
2024/02/23 17:48:18;;;;;;;0.20;0.20;;;18.90;43.30;;;;;;8362949;28;20040;-56
2024/02/23 17:52:19;;;;;;;0.17;0.17;;;18.90;43.30;;;;;;8362386;28;20040;-55
2024/02/23 17:56:20;;;;;;;0.20;0.20;;;18.90;43.30;;;;;;8361930;28;20041;-56
2024/02/23 18:00:21;;;;;;;0.10;0.10;;;18.90;43.30;;;;;;8361233;28;20163;-53
2024/02/23 18:04:23;;;;;;;0.20;0.20;;;18.90;43.30;;;;;;8361024;28;20271;-56
2024/02/23 18:08:23;;;;;;;0.50;0.50;;;18.90;43.30;;;;;;8361854;28;20056;-56
2024/02/23 18:12:24;;;;;;;2.53;1.35;;;18.70;42.40;;;;;;8361529;28;20048;-53
2024/02/23 18:16:25;;;;;;;2.38;1.73;;;18.60;40.90;;;;;;8360375;28;20044;-55
2024/02/23 18:20:26;;;;;;;4.68;1.52;;;18.50;39.00;;;;;;8360791;28;20025;-57
2024/02/23 18:24:26;;;;;;;5.07;1.50;;;18.40;39.30;;;;;;8361376;28;20090;-55
2024/02/23 18:28:31;;;;;;;4.20;1.30;;;18.30;39.30;;;;;;8361136;28;20037;-55
2024/02/23 18:32:32;;;;;;;3.75;1.35;;;18.40;39.00;;;;;;8359431;28;20059;-56
2024/02/23 18:36:32;;;;;;;3.73;1.17;;;18.40;38.90;;;;;;8360707;28;20033;-56
2024/02/23 18:40:33;;;;;;;3.13;1.50;;;18.60;38.60;;;;;;8361130;28;20688;-54
2024/02/23 18:44:35;;;;;;;5.45;1.85;;;18.70;39.00;;;;;;8360783;28;20286;-54
2024/02/23 18:48:36;;;;;;;3.20;1.42;;;18.80;38.80;;;;;;8359772;28;20043;-54
2024/02/23 18:52:36;;;;;;;2.47;1.20;;;18.80;38.90;;;;;;8360558;28;20041;-54
2024/02/23 18:56:37;;;;;;;5.20;1.90;;;18.80;39.10;;;;;;8360251;28;20037;-54
2024/02/23 19:00:38;;;;;;;2.93;1.70;;;18.70;39.40;;;;;;8360368;28;20082;-54
2024/02/23 19:04:38;;;;;;;14.20;4.63;;;18.60;39.50;;;;;;8360277;28;20902;-55
2024/02/23 19:08:39;;;;;;;11.05;3.80;;;18.60;40.60;;;;;;8360195;28;20033;-54
2024/02/23 19:12:41;;;;;;;10.00;3.50;;;18.70;40.30;;;;;;8359727;28;20091;-56
2024/02/23 19:16:44;;;;;;;9.02;3.53;;;18.70;41.80;;;;;;8358675;28;20482;-56
2024/02/23 19:20:45;;;;;;;13.13;5.13;;;18.80;45.20;;;;;;8359975;28;20121;-54
2024/02/23 19:24:47;;;;;;;11.65;5.80;;;18.80;44.50;;;;;;8359805;28;20036;-57
2024/02/23 19:28:48;;;;;;;9.55;5.80;;;18.90;43.20;;;;;;8359758;28;20037;-54
2024/02/23 19:32:49;;;;;;;10.25;6.18;;;18.80;42.20;;;;;;8359872;28;20037;-53
2024/02/23 19:36:53;;;;;;;11.55;6.03;;;18.90;41.80;;;;;;8359378;28;20041;-54
2024/02/23 19:40:54;;;;;;;9.65;4.80;;;18.80;40.90;;;;;;8359672;28;20032;-57
2024/02/23 19:44:55;;;;;;;7.70;4.35;;;18.80;40.80;;;;;;8359813;28;20025;-55
2024/02/23 19:48:57;;;;;;;9.52;5.13;;;18.80;40.50;;;;;;8359357;28;20048;-49
2024/02/23 19:52:57;;;;;;;9.48;5.45;;;18.80;40.20;;;;;;8359015;28;20032;-49
2024/02/23 19:56:58;;;;;;;9.63;5.13;;;18.80;39.70;;;;;;8359486;28;20087;-48
2024/02/23 20:00:59;;;;;;;10.50;5.75;;;18.80;39.60;;;;;;8359341;28;20028;-48
2024/02/23 20:04:59;;;;;;;11.90;5.60;;;18.90;39.80;;;;;;8359253;28;20403;-54
2024/02/23 20:09:00;;;;;;;12.13;4.65;;;18.90;39.90;;;;;;8359181;28;20094;-51
2024/02/23 20:13:01;;;;;;;11.20;5.72;;;19.00;40.40;;;;;;8359123;28;20049;-47
2024/02/23 20:17:02;;;;;;;24.83;7.05;;;19.00;39.80;;;;;;8359226;28;20065;-48
2024/02/23 20:21:03;;;;;;;20.45;7.10;;;19.00;40.00;;;;;;8342005;28;20045;-49
2024/02/23 20:25:04;;;;;;;24.83;7.13;;;19.00;39.70;;;;;;8328455;28;20025;-49
2024/02/23 20:29:07;;;;;;;20.25;6.07;;;19.00;40.00;;;;;;8362292;28;20048;-50
2024/02/23 20:33:08;;;;;;;23.48;7.15;;;19.00;39.80;;;;;;8366847;28;20025;-48
2024/02/23 20:37:09;;;;;;;18.80;6.13;;;19.00;39.80;;;;;;8366438;28;20768;-48
2024/02/23 20:41:10;;;;;;;14.65;6.05;;;19.10;39.80;;;;;;8366409;28;20099;-49
2024/02/23 20:45:10;;;;;;;11.55;4.90;;;19.10;39.80;;;;;;8365390;28;20040;-50
2024/02/23 20:49:11;;;;;;;14.32;5.68;;;19.10;39.80;;;;;;8366281;28;20037;-48
2024/02/23 20:53:12;;;;;;;13.52;4.75;;;19.10;39.80;;;;;;8366217;28;20071;-49
2024/02/23 20:57:16;;;;;;;11.82;4.82;;;19.10;39.80;;;;;;8365682;28;20041;-52